Time;durP1;ratioP1;P1;durP2;ratioP2;P2;SDS_P1;SDS_P2;PMS_P1;PMS_P2;Temp;Humidity;BMP_temperature;BMP_pressure;BME280_temperature;BME280_humidity;BME280_pressure;Samples;Min_cycle;Max_cycle;Signal;HPM_P1;HPM_P2
2022/03/26 00:00:06;;;;;;;;;39.00;34.75;;;;;;;;5059914;28;45534;-69
2022/03/26 00:02:31;;;;;;;;;38.75;34.50;;;;;;;;5061777;28;45275;-70
2022/03/26 00:04:57;;;;;;;;;38.75;34.50;;;;;;;;5060882;28;46503;-69
2022/03/26 00:07:22;;;;;;;;;40.50;34.25;;;;;;;;5061247;28;45505;-69
2022/03/26 00:09:47;;;;;;;;;40.75;35.25;;;;;;;;5061387;28;45235;-69
2022/03/26 00:12:13;;;;;;;;;42.00;33.00;;;;;;;;5062637;28;45516;-70
2022/03/26 00:14:38;;;;;;;;;39.25;34.00;;;;;;;;5068303;28;45477;-69
2022/03/26 00:17:04;;;;;;;;;41.50;35.00;;;;;;;;5063144;28;45211;-69
2022/03/26 00:19:29;;;;;;;;;35.50;32.00;;;;;;;;5065895;27;45495;-70
2022/03/26 00:21:54;;;;;;;;;40.50;35.25;;;;;;;;5059861;28;45401;-70
2022/03/26 00:24:20;;;;;;;;;39.25;35.00;;;;;;;;5063349;28;46553;-70
2022/03/26 00:26:45;;;;;;;;;37.00;33.25;;;;;;;;5061294;28;45394;-69
2022/03/26 00:29:10;;;;;;;;;42.50;36.25;;;;;;;;5063338;28;45448;-69
2022/03/26 00:31:37;;;;;;;;;34.75;33.50;;;;;;;;5061586;28;45578;-69
2022/03/26 00:34:03;;;;;;;;;44.50;35.75;;;;;;;;5059039;28;46312;-70
2022/03/26 00:36:28;;;;;;;;;38.00;34.25;;;;;;;;5063249;28;45429;-70
2022/03/26 00:38:54;;;;;;;;;43.25;35.50;;;;;;;;5061756;28;45283;-70
2022/03/26 00:41:19;;;;;;;;;29.00;29.00;;;;;;;;5059196;28;45690;-70
2022/03/26 00:43:44;;;;;;;;;37.50;33.75;;;;;;;;5063128;28;45385;-70
2022/03/26 00:46:13;;;;;;;;;33.25;31.00;;;;;;;;5066875;28;45452;-69
2022/03/26 00:48:38;;;;;;;;;38.25;32.75;;;;;;;;5061289;28;45843;-69
2022/03/26 00:51:04;;;;;;;;;37.25;33.25;;;;;;;;5061150;28;45385;-70
2022/03/26 00:53:29;;;;;;;;;40.00;34.25;;;;;;;;5060946;28;45505;-69
2022/03/26 00:55:55;;;;;;;;;35.25;33.00;;;;;;;;5061022;28;45608;-70
2022/03/26 00:58:20;;;;;;;;;36.75;33.50;;;;;;;;5057414;28;45440;-70
2022/03/26 01:00:46;;;;;;;;;38.00;32.75;;;;;;;;5061249;28;45452;-70
2022/03/26 01:03:11;;;;;;;;;33.25;31.75;;;;;;;;5060690;28;46103;-70
2022/03/26 01:05:38;;;;;;;;;31.25;31.00;;;;;;;;5058657;28;45824;-69
2022/03/26 01:08:04;;;;;;;;;37.75;33.75;;;;;;;;5064443;28;45480;-70
2022/03/26 01:10:29;;;;;;;;;36.75;34.00;;;;;;;;5061215;28;45421;-69
2022/03/26 01:12:55;;;;;;;;;33.75;31.75;;;;;;;;5062308;28;46028;-70
2022/03/26 01:15:20;;;;;;;;;36.50;32.50;;;;;;;;5058536;28;45771;-69
2022/03/26 01:17:45;;;;;;;;;37.25;34.00;;;;;;;;5061775;28;45479;-70
2022/03/26 01:20:11;;;;;;;;;31.75;31.25;;;;;;;;5060208;28;45539;-70
2022/03/26 01:22:37;;;;;;;;;39.25;34.75;;;;;;;;5062563;28;45575;-70
2022/03/26 01:25:04;;;;;;;;;36.75;34.00;;;;;;;;5059992;28;45913;-70
2022/03/26 01:27:29;;;;;;;;;39.50;34.25;;;;;;;;5062650;28;45409;-69
2022/03/26 01:29:54;;;;;;;;;33.75;31.50;;;;;;;;5056617;28;45635;-70
2022/03/26 01:32:20;;;;;;;;;39.00;33.00;;;;;;;;5061851;28;45588;-69
2022/03/26 01:34:46;;;;;;;;;34.50;32.25;;;;;;;;5057952;28;45546;-69
2022/03/26 01:37:12;;;;;;;;;34.75;32.25;;;;;;;;5060251;28;45404;-69
2022/03/26 01:39:37;;;;;;;;;40.50;36.25;;;;;;;;5060279;28;45519;-70
2022/03/26 01:42:04;;;;;;;;;32.00;30.50;;;;;;;;5060054;28;45794;-70
2022/03/26 01:44:29;;;;;;;;;33.75;31.50;;;;;;;;5063897;28;46270;-70
2022/03/26 01:46:55;;;;;;;;;35.50;33.00;;;;;;;;5060321;28;45360;-70
2022/03/26 01:49:21;;;;;;;;;39.75;34.50;;;;;;;;5058957;28;45534;-69
2022/03/26 01:51:47;;;;;;;;;36.50;33.50;;;;;;;;5061854;28;45477;-69
2022/03/26 01:54:13;;;;;;;;;38.75;32.00;;;;;;;;5059755;28;45342;-69
2022/03/26 01:56:39;;;;;;;;;36.25;33.75;;;;;;;;5061606;28;45625;-69
2022/03/26 01:59:05;;;;;;;;;35.50;32.25;;;;;;;;5059752;28;45474;-69
2022/03/26 02:01:34;;;;;;;;;36.75;34.25;;;;;;;;5062044;28;45414;-69
2022/03/26 02:04:02;;;;;;;;;33.75;33.00;;;;;;;;5058007;28;45503;-69
2022/03/26 02:06:29;;;;;;;;;30.50;29.50;;;;;;;;5059927;28;45806;-70
2022/03/26 02:08:54;;;;;;;;;32.75;31.25;;;;;;;;5059679;28;45326;-69
2022/03/26 02:11:20;;;;;;;;;41.00;35.25;;;;;;;;5061341;28;46276;-69
2022/03/26 02:13:53;;;;;;;;;33.00;29.50;;;;;;;;5059687;28;45412;-69
2022/03/26 02:16:20;;;;;;;;;37.75;33.75;;;;;;;;5057740;28;45936;-69
2022/03/26 02:18:45;;;;;;;;;38.75;34.50;;;;;;;;5061391;28;45446;-69
2022/03/26 02:21:11;;;;;;;;;37.50;34.50;;;;;;;;5060363;28;45547;-69
2022/03/26 02:23:36;;;;;;;;;32.75;31.00;;;;;;;;5059562;28;45569;-69
2022/03/26 02:26:02;;;;;;;;;31.50;30.75;;;;;;;;5059201;28;45854;-70
2022/03/26 02:28:27;;;;;;;;;32.50;30.50;;;;;;;;5058356;28;45382;-70
2022/03/26 02:30:53;;;;;;;;;33.00;31.50;;;;;;;;5060239;28;45696;-69
2022/03/26 02:33:18;;;;;;;;;34.25;31.25;;;;;;;;5058519;28;45433;-69
2022/03/26 02:35:44;;;;;;;;;39.50;33.00;;;;;;;;5061322;28;45533;-70
2022/03/26 02:38:09;;;;;;;;;36.25;32.75;;;;;;;;5059349;28;45421;-70
2022/03/26 02:40:35;;;;;;;;;28.00;27.25;;;;;;;;5057347;28;45526;-69
2022/03/26 02:43:00;;;;;;;;;27.25;26.25;;;;;;;;5061737;28;45357;-70
2022/03/26 02:45:25;;;;;;;;;31.50;25.50;;;;;;;;5059032;28;45503;-69
2022/03/26 02:47:51;;;;;;;;;30.25;27.00;;;;;;;;5059948;28;45419;-70
2022/03/26 02:50:18;;;;;;;;;27.75;22.25;;;;;;;;5063314;28;45510;-69
2022/03/26 02:52:48;;;;;;;;;26.00;24.00;;;;;;;;5056599;28;45493;-69
2022/03/26 02:55:13;;;;;;;;;22.25;21.75;;;;;;;;5059133;28;45489;-70
2022/03/26 02:57:38;;;;;;;;;25.00;23.75;;;;;;;;5061694;28;45508;-69
2022/03/26 03:00:04;;;;;;;;;29.25;27.00;;;;;;;;5063193;28;46024;-69
2022/03/26 03:02:29;;;;;;;;;29.00;24.50;;;;;;;;5057173;28;45518;-70
2022/03/26 03:04:55;;;;;;;;;21.75;20.25;;;;;;;;5058541;28;45362;-69
2022/03/26 03:07:21;;;;;;;;;29.25;23.75;;;;;;;;5059352;28;45535;-69
2022/03/26 03:09:46;;;;;;;;;22.75;22.00;;;;;;;;5058830;28;45466;-69
2022/03/26 03:12:11;;;;;;;;;25.25;22.00;;;;;;;;5074366;28;45403;-70
2022/03/26 03:14:37;;;;;;;;;26.25;24.25;;;;;;;;5081105;28;45269;-69
2022/03/26 03:17:03;;;;;;;;;27.25;24.75;;;;;;;;5081333;28;45223;-69
2022/03/26 03:19:28;;;;;;;;;22.00;20.75;;;;;;;;5079175;28;45979;-69
2022/03/26 03:21:53;;;;;;;;;28.25;26.25;;;;;;;;5080663;28;45456;-69
2022/03/26 03:24:19;;;;;;;;;26.75;23.75;;;;;;;;5080731;28;45503;-69
2022/03/26 03:26:44;;;;;;;;;19.75;18.50;;;;;;;;5069741;28;45324;-70
2022/03/26 03:29:09;;;;;;;;;22.25;21.00;;;;;;;;5059121;28;45517;-70
2022/03/26 03:31:37;;;;;;;;;25.25;24.75;;;;;;;;5059338;28;45461;-70
2022/03/26 03:34:02;;;;;;;;;20.50;19.00;;;;;;;;5059096;28;45456;-69
2022/03/26 03:36:27;;;;;;;;;21.00;18.75;;;;;;;;5059496;28;45424;-69
2022/03/26 03:38:53;;;;;;;;;29.75;24.75;;;;;;;;5058470;28;45350;-69
2022/03/26 03:41:18;;;;;;;;;24.00;22.00;;;;;;;;5057556;28;45342;-69
2022/03/26 03:43:44;;;;;;;;;27.75;22.50;;;;;;;;5062159;28;45934;-69
2022/03/26 03:46:09;;;;;;;;;23.50;23.00;;;;;;;;5080053;28;45469;-70
2022/03/26 03:48:35;;;;;;;;;27.00;26.00;;;;;;;;5061218;28;45566;-70
2022/03/26 03:51:00;;;;;;;;;26.00;23.25;;;;;;;;5059443;28;45540;-70
2022/03/26 03:53:25;;;;;;;;;26.50;22.25;;;;;;;;5059885;28;45500;-70
2022/03/26 03:55:50;;;;;;;;;25.75;24.75;;;;;;;;5059316;28;45363;-69
2022/03/26 03:58:16;;;;;;;;;26.75;25.25;;;;;;;;5057171;28;45694;-70
2022/03/26 04:00:41;;;;;;;;;27.50;24.00;;;;;;;;5059230;28;45362;-69
2022/03/26 04:03:07;;;;;;;;;22.75;22.00;;;;;;;;5059955;28;45434;-69
2022/03/26 04:05:32;;;;;;;;;27.00;22.75;;;;;;;;5059608;28;45279;-69
2022/03/26 04:07:57;;;;;;;;;25.25;23.75;;;;;;;;5058895;28;45519;-70
2022/03/26 04:10:23;;;;;;;;;22.25;21.00;;;;;;;;5068167;28;45442;-69
2022/03/26 04:12:48;;;;;;;;;29.25;27.00;;;;;;;;5064484;28;45370;-70
2022/03/26 04:15:14;;;;;;;;;24.25;23.00;;;;;;;;5059881;28;45395;-70
2022/03/26 04:17:39;;;;;;;;;28.50;24.75;;;;;;;;5079809;28;46064;-69
2022/03/26 04:20:10;;;;;;;;;25.75;23.75;;;;;;;;5079391;28;45405;-69
2022/03/26 04:22:35;;;;;;;;;26.25;24.25;;;;;;;;5073613;28;45501;-69
2022/03/26 04:25:01;;;;;;;;;25.25;21.75;;;;;;;;5058947;28;45527;-70
2022/03/26 04:27:27;;;;;;;;;26.25;24.25;;;;;;;;5057029;28;45565;-70
2022/03/26 04:29:53;;;;;;;;;23.75;20.75;;;;;;;;5058970;28;45385;-69
2022/03/26 04:32:18;;;;;;;;;35.50;26.25;;;;;;;;5072569;28;45436;-70
2022/03/26 04:34:43;;;;;;;;;29.00;25.50;;;;;;;;5067537;28;45299;-70
2022/03/26 04:37:09;;;;;;;;;24.00;22.50;;;;;;;;5079639;28;45527;-70
2022/03/26 04:39:34;;;;;;;;;26.50;24.75;;;;;;;;5077673;28;45250;-70
2022/03/26 04:42:00;;;;;;;;;23.00;19.75;;;;;;;;5058713;28;45366;-69
2022/03/26 04:44:25;;;;;;;;;24.50;22.50;;;;;;;;5060763;28;45341;-70
2022/03/26 04:46:51;;;;;;;;;28.75;25.75;;;;;;;;5062213;28;46489;-69
2022/03/26 04:49:16;;;;;;;;;28.25;24.00;;;;;;;;5074350;28;45468;-70
2022/03/26 04:51:41;;;;;;;;;27.00;25.00;;;;;;;;5058167;28;46340;-69
2022/03/26 04:54:07;;;;;;;;;25.75;25.00;;;;;;;;5058890;28;45507;-70
2022/03/26 04:56:32;;;;;;;;;28.25;24.50;;;;;;;;5056756;28;45765;-69
2022/03/26 04:58:58;;;;;;;;;24.00;23.00;;;;;;;;5070559;28;45436;-70
2022/03/26 05:01:23;;;;;;;;;23.75;22.25;;;;;;;;5061146;28;45486;-69
2022/03/26 05:03:49;;;;;;;;;27.00;24.75;;;;;;;;5078309;28;45326;-70
2022/03/26 05:06:14;;;;;;;;;27.75;23.00;;;;;;;;5077696;28;46044;-70
2022/03/26 05:08:40;;;;;;;;;26.75;24.75;;;;;;;;5077845;28;45531;-70
2022/03/26 05:11:05;;;;;;;;;26.50;25.75;;;;;;;;5061460;28;45555;-69
2022/03/26 05:13:31;;;;;;;;;27.00;25.00;;;;;;;;5058200;28;45235;-69
2022/03/26 05:15:56;;;;;;;;;28.00;23.25;;;;;;;;5057033;28;45353;-69
2022/03/26 05:18:21;;;;;;;;;23.75;22.00;;;;;;;;5072666;28;45292;-70
2022/03/26 05:20:47;;;;;;;;;25.00;24.50;;;;;;;;5076989;28;45551;-70
2022/03/26 05:23:12;;;;;;;;;23.50;21.25;;;;;;;;5066122;28;45642;-70
2022/03/26 05:25:38;;;;;;;;;22.00;20.25;;;;;;;;5073131;28;45645;-69
2022/03/26 05:28:03;;;;;;;;;24.50;21.25;;;;;;;;5057730;28;45552;-70
2022/03/26 05:30:28;;;;;;;;;24.50;23.75;;;;;;;;5056157;27;45579;-70
2022/03/26 05:32:55;;;;;;;;;24.25;23.25;;;;;;;;5073097;27;45427;-70
2022/03/26 05:35:21;;;;;;;;;25.25;24.00;;;;;;;;5063329;28;46626;-70
2022/03/26 05:37:47;;;;;;;;;25.25;23.25;;;;;;;;5066547;28;45371;-69
2022/03/26 05:40:14;;;;;;;;;22.00;20.75;;;;;;;;5057169;28;45449;-70
2022/03/26 05:42:40;;;;;;;;;25.75;23.00;;;;;;;;5059872;28;45520;-70
2022/03/26 05:45:06;;;;;;;;;24.50;23.50;;;;;;;;5076835;28;45567;-70
2022/03/26 05:47:31;;;;;;;;;27.75;24.00;;;;;;;;5077286;27;45488;-69
2022/03/26 05:49:57;;;;;;;;;24.50;22.50;;;;;;;;5077251;28;45223;-70
2022/03/26 05:52:22;;;;;;;;;22.50;21.00;;;;;;;;5060792;28;47037;-69
2022/03/26 05:54:48;;;;;;;;;25.50;22.50;;;;;;;;5070770;28;45526;-69
2022/03/26 05:57:13;;;;;;;;;27.00;22.00;;;;;;;;5067871;28;45473;-70
2022/03/26 05:59:38;;;;;;;;;25.25;25.25;;;;;;;;5062881;28;45489;-70
2022/03/26 06:02:04;;;;;;;;;23.50;22.50;;;;;;;;5060243;28;45384;-70
2022/03/26 06:04:29;;;;;;;;;26.00;23.00;;;;;;;;5070246;28;46564;-70
2022/03/26 06:06:56;;;;;;;;;27.50;24.00;;;;;;;;5066353;28;45585;-70
2022/03/26 06:09:21;;;;;;;;;25.50;23.00;;;;;;;;5062197;28;45501;-70
2022/03/26 06:11:47;;;;;;;;;23.75;21.50;;;;;;;;5056610;28;45439;-69
2022/03/26 06:14:12;;;;;;;;;23.00;21.50;;;;;;;;5062256;27;45722;-69
2022/03/26 06:16:37;;;;;;;;;28.25;23.75;;;;;;;;5067475;28;45715;-69
2022/03/26 06:19:03;;;;;;;;;25.00;23.50;;;;;;;;5071572;28;45604;-71
2022/03/26 06:21:29;;;;;;;;;31.00;26.25;;;;;;;;5056451;28;45601;-70
2022/03/26 06:23:58;;;;;;;;;23.25;23.25;;;;;;;;5056597;28;46513;-70
2022/03/26 06:26:24;;;;;;;;;26.75;23.50;;;;;;;;5056169;28;45387;-70
2022/03/26 06:28:50;;;;;;;;;27.25;23.75;;;;;;;;5061442;28;45492;-70
2022/03/26 06:31:16;;;;;;;;;23.25;22.00;;;;;;;;5072283;28;45268;-70
2022/03/26 06:33:41;;;;;;;;;26.00;21.25;;;;;;;;5054687;28;47807;-70
2022/03/26 06:36:06;;;;;;;;;25.25;23.50;;;;;;;;5056503;28;45286;-69
2022/03/26 06:38:38;;;;;;;;;20.50;20.50;;;;;;;;5056499;28;45535;-69
2022/03/26 06:41:03;;;;;;;;;22.25;22.00;;;;;;;;5068689;28;45458;-69
2022/03/26 06:43:29;;;;;;;;;24.00;21.75;;;;;;;;5056420;28;45367;-69
2022/03/26 06:45:55;;;;;;;;;23.25;22.25;;;;;;;;5057139;28;45377;-69
2022/03/26 06:48:20;;;;;;;;;23.50;21.25;;;;;;;;5062213;28;45662;-70
2022/03/26 06:50:45;;;;;;;;;19.50;19.00;;;;;;;;5060109;28;45512;-69
2022/03/26 06:53:11;;;;;;;;;20.00;19.50;;;;;;;;5058356;28;45691;-69
2022/03/26 06:55:37;;;;;;;;;33.50;27.75;;;;;;;;5059404;28;45445;-69
2022/03/26 06:58:02;;;;;;;;;34.25;31.50;;;;;;;;5071053;27;45424;-69
2022/03/26 07:00:27;;;;;;;;;31.75;29.00;;;;;;;;5062628;28;47059;-69
2022/03/26 07:02:53;;;;;;;;;74.50;55.25;;;;;;;;5075306;27;46022;-70
2022/03/26 07:05:19;;;;;;;;;44.00;36.00;;;;;;;;5059343;28;45382;-69
2022/03/26 07:07:44;;;;;;;;;23.25;20.00;;;;;;;;5059445;28;45516;-69
2022/03/26 07:10:09;;;;;;;;;21.75;21.00;;;;;;;;5059027;28;45401;-70
2022/03/26 07:12:35;;;;;;;;;25.25;22.00;;;;;;;;5058454;28;46194;-69
2022/03/26 07:15:00;;;;;;;;;24.00;23.75;;;;;;;;5059326;28;45511;-70
2022/03/26 07:17:26;;;;;;;;;26.00;24.00;;;;;;;;5058842;28;45312;-70
2022/03/26 07:19:51;;;;;;;;;23.00;21.00;;;;;;;;5058220;28;45632;-70
2022/03/26 07:22:17;;;;;;;;;25.50;24.00;;;;;;;;5058920;28;46040;-70
2022/03/26 07:24:42;;;;;;;;;18.75;18.50;;;;;;;;5078742;28;45492;-70
2022/03/26 07:27:08;;;;;;;;;22.25;20.50;;;;;;;;5063710;28;45600;-70
2022/03/26 07:29:35;;;;;;;;;23.25;21.00;;;;;;;;5058987;28;45413;-69
2022/03/26 07:32:00;;;;;;;;;21.00;21.00;;;;;;;;5057253;28;46070;-70
2022/03/26 07:34:26;;;;;;;;;21.75;20.25;;;;;;;;5074488;28;45431;-70
2022/03/26 07:36:52;;;;;;;;;20.00;18.33;;;;;;;;5065505;28;45405;-70
2022/03/26 07:39:18;;;;;;;;;23.33;21.33;;;;;;;;5080895;27;45337;-70
2022/03/26 07:41:43;;;;;;;;;23.25;21.50;;;;;;;;5079172;28;45615;-69
2022/03/26 07:44:09;;;;;;;;;24.00;22.50;;;;;;;;5079254;28;45475;-69
2022/03/26 07:46:34;;;;;;;;;32.50;29.25;;;;;;;;5079482;28;45540;-70
2022/03/26 07:48:59;;;;;;;;;19.67;18.67;;;;;;;;5079624;28;45413;-71
2022/03/26 07:51:25;;;;;;;;;17.33;17.33;;;;;;;;5077680;28;46246;-70
2022/03/26 07:53:51;;;;;;;;;25.75;22.00;;;;;;;;5079649;27;45564;-70
2022/03/26 07:56:16;;;;;;;;;23.67;22.00;;;;;;;;5079440;28;45270;-70
2022/03/26 07:58:42;;;;;;;;;20.33;19.00;;;;;;;;5078132;28;45378;-70
2022/03/26 08:01:07;;;;;;;;;20.00;19.00;;;;;;;;5073734;28;45528;-70
2022/03/26 08:03:33;;;;;;;;;26.25;25.75;;;;;;;;5077531;28;46117;-70
2022/03/26 08:05:58;;;;;;;;;24.00;23.00;;;;;;;;5074390;28;45501;-70
2022/03/26 08:08:24;;;;;;;;;23.00;21.67;;;;;;;;5078084;27;45517;-70
2022/03/26 08:10:50;;;;;;;;;22.33;19.33;;;;;;;;5075116;28;45679;-70
2022/03/26 08:13:15;;;;;;;;;27.00;23.67;;;;;;;;5076458;28;45536;-70
2022/03/26 08:15:40;;;;;;;;;21.00;19.33;;;;;;;;5076044;27;45897;-70
2022/03/26 08:18:06;;;;;;;;;21.00;20.00;;;;;;;;5074579;28;45472;-70
2022/03/26 08:20:31;;;;;;;;;20.00;19.67;;;;;;;;5071525;28;45823;-70
2022/03/26 08:22:57;;;;;;;;;20.00;19.00;;;;;;;;5076668;28;45529;-70
2022/03/26 08:28:07;;;;;;;;;15.67;15.67;;;;;;;;5076191;28;45545;-70
2022/03/26 08:30:32;;;;;;;;;18.00;17.00;;;;;;;;5076657;28;46219;-70
2022/03/26 08:32:59;;;;;;;;;17.00;16.00;;;;;;;;5074729;28;45516;-70
2022/03/26 08:35:25;;;;;;;;;19.33;18.33;;;;;;;;5075871;28;45420;-70
2022/03/26 08:37:50;;;;;;;;;18.00;17.00;;;;;;;;5077233;28;45440;-70
2022/03/26 08:40:15;;;;;;;;;16.67;16.67;;;;;;;;5075227;28;47026;-69
2022/03/26 08:42:41;;;;;;;;;15.67;15.67;;;;;;;;5075526;28;45602;-70
2022/03/26 08:45:07;;;;;;;;;17.33;16.67;;;;;;;;5075104;28;45348;-72
2022/03/26 08:47:33;;;;;;;;;17.00;16.67;;;;;;;;5074708;27;45981;-68
2022/03/26 08:49:59;;;;;;;;;15.00;15.00;;;;;;;;5073308;28;46881;-68
2022/03/26 08:52:25;;;;;;;;;19.67;17.67;;;;;;;;5075887;27;45754;-71
2022/03/26 08:54:50;;;;;;;;;23.00;22.67;;;;;;;;5061645;28;45453;-71
2022/03/26 08:57:15;;;;;;;;;17.00;16.67;;;;;;;;5071683;28;45552;-72
2022/03/26 08:59:41;;;;;;;;;13.00;12.33;;;;;;;;5063153;28;46375;-70
2022/03/26 09:02:06;;;;;;;;;17.33;17.33;;;;;;;;5064211;28;45446;-72
2022/03/26 09:04:32;;;;;;;;;15.67;15.67;;;;;;;;5056372;28;45442;-72
2022/03/26 09:06:57;;;;;;;;;18.33;17.67;;;;;;;;5073114;28;45631;-72
2022/03/26 09:09:22;;;;;;;;;27.00;25.67;;;;;;;;5070997;28;46652;-71
2022/03/26 09:11:49;;;;;;;;;17.67;16.67;;;;;;;;5074157;27;45543;-72
2022/03/26 09:14:15;;;;;;;;;16.00;15.67;;;;;;;;5074846;28;45554;-72
2022/03/26 09:16:40;;;;;;;;;17.00;17.00;;;;;;;;5071939;28;45484;-72
2022/03/26 09:19:05;;;;;;;;;17.00;17.00;;;;;;;;5073526;27;45489;-72
2022/03/26 09:21:31;;;;;;;;;19.33;18.00;;;;;;;;5070585;28;45580;-69
2022/03/26 09:23:56;;;;;;;;;26.00;23.00;;;;;;;;5068931;27;45564;-69
2022/03/26 09:26:21;;;;;;;;;19.00;18.33;;;;;;;;5068524;27;45588;-70
2022/03/26 09:28:47;;;;;;;;;15.00;14.00;;;;;;;;5061576;28;46359;-69
2022/03/26 09:31:12;;;;;;;;;17.67;17.67;;;;;;;;5075248;28;45358;-69
2022/03/26 09:33:37;;;;;;;;;13.67;12.67;;;;;;;;5071479;28;45440;-69
2022/03/26 09:36:03;;;;;;;;;15.33;13.33;;;;;;;;5072453;27;45523;-69
2022/03/26 09:38:28;;;;;;;;;7.33;6.33;;;;;;;;5073014;27;45853;-70
2022/03/26 09:40:54;;;;;;;;;13.67;13.67;;;;;;;;5072255;28;45511;-68
2022/03/26 09:43:20;;;;;;;;;36.00;32.25;;;;;;;;5074165;27;45449;-69
2022/03/26 09:45:46;;;;;;;;;15.00;14.33;;;;;;;;5064451;27;45265;-67
2022/03/26 09:48:11;;;;;;;;;15.00;15.00;;;;;;;;5070881;28;45433;-68
2022/03/26 09:50:40;;;;;;;;;14.00;14.00;;;;;;;;5058999;28;45521;-68
2022/03/26 09:53:05;;;;;;;;;17.33;16.33;;;;;;;;5076312;28;45425;-68
2022/03/26 09:55:32;;;;;;;;;16.33;15.67;;;;;;;;5056067;28;45536;-69
2022/03/26 09:57:58;;;;;;;;;16.00;15.33;;;;;;;;5067728;28;46669;-68
2022/03/26 10:00:23;;;;;;;;;13.00;12.00;;;;;;;;5055446;28;45484;-69
2022/03/26 10:02:48;;;;;;;;;15.00;15.00;;;;;;;;5054213;28;45370;-68
2022/03/26 10:05:17;;;;;;;;;16.67;16.67;;;;;;;;5058738;28;45307;-68
2022/03/26 10:07:45;;;;;;;;;15.00;14.00;;;;;;;;5070509;28;46212;-68
2022/03/26 10:10:20;;;;;;;;;16.67;16.33;;;;;;;;5072684;28;45877;-67
2022/03/26 10:12:48;;;;;;;;;13.33;13.33;;;;;;;;5072135;28;45536;-68
2022/03/26 10:15:13;;;;;;;;;14.67;14.33;;;;;;;;5073194;28;45416;-68
2022/03/26 10:17:39;;;;;;;;;14.00;14.00;;;;;;;;5071960;27;46736;-69
2022/03/26 10:20:06;;;;;;;;;16.00;14.67;;;;;;;;5073171;28;45563;-69
2022/03/26 10:22:34;;;;;;;;;14.67;13.00;;;;;;;;5071449;28;45591;-70
2022/03/26 10:25:11;;;;;;;;;15.00;14.00;;;;;;;;5073689;27;45571;-71
2022/03/26 10:27:38;;;;;;;;;17.67;14.67;;;;;;;;5074036;28;46273;-71
2022/03/26 10:30:04;;;;;;;;;15.33;15.33;;;;;;;;5070659;27;45463;-70
2022/03/26 10:32:45;;;;;;;;;13.00;13.00;;;;;;;;5075088;27;45473;-71
2022/03/26 10:35:14;;;;;;;;;16.00;13.00;;;;;;;;5061614;28;45425;-70
2022/03/26 10:37:43;;;;;;;;;15.00;14.67;;;;;;;;5072463;28;46046;-71
2022/03/26 10:40:20;;;;;;;;;14.00;14.00;;;;;;;;5074304;27;45608;-71
2022/03/26 10:42:51;;;;;;;;;16.33;15.33;;;;;;;;5072567;28;45245;-70
2022/03/26 10:45:16;;;;;;;;;15.67;14.00;;;;;;;;5073211;28;45748;-71
2022/03/26 10:47:42;;;;;;;;;15.00;14.33;;;;;;;;5070903;27;45511;-70
2022/03/26 10:50:07;;;;;;;;;17.00;17.00;;;;;;;;5074997;27;45509;-71
2022/03/26 10:52:33;;;;;;;;;20.00;19.00;;;;;;;;5074552;27;45504;-70
2022/03/26 10:55:00;;;;;;;;;23.33;21.33;;;;;;;;5075063;27;46621;-70
2022/03/26 10:57:27;;;;;;;;;20.67;20.67;;;;;;;;5070330;28;48049;-70
2022/03/26 10:59:53;;;;;;;;;23.33;22.67;;;;;;;;5072862;27;45514;-70
2022/03/26 11:02:18;;;;;;;;;21.33;20.67;;;;;;;;5071033;28;45541;-70
2022/03/26 11:04:43;;;;;;;;;22.67;22.33;;;;;;;;5073022;27;45770;-70
2022/03/26 11:07:11;;;;;;;;;18.33;17.00;;;;;;;;5071655;27;45425;-70
2022/03/26 11:09:37;;;;;;;;;21.67;19.67;;;;;;;;5071749;27;45698;-70
2022/03/26 11:12:03;;;;;;;;;23.00;22.33;;;;;;;;5059791;28;45404;-71
2022/03/26 11:14:33;;;;;;;;;22.00;21.33;;;;;;;;5071922;28;45554;-71
2022/03/26 11:17:01;;;;;;;;;23.33;22.67;;;;;;;;5071786;28;45554;-72
2022/03/26 11:19:31;;;;;;;;;21.00;20.67;;;;;;;;5055888;28;45358;-71
2022/03/26 11:22:21;;;;;;;;;22.00;21.67;;;;;;;;5060906;28;45369;-72
2022/03/26 11:25:05;;;;;;;;;24.00;22.33;;;;;;;;5075298;28;45450;-72
2022/03/26 11:27:49;;;;;;;;;28.00;27.00;;;;;;;;5059978;28;45577;-71
2022/03/26 11:30:18;;;;;;;;;22.50;18.75;;;;;;;;5063349;28;45386;-71
2022/03/26 11:32:44;;;;;;;;;22.00;22.00;;;;;;;;5056289;28;45496;-71
2022/03/26 11:35:11;;;;;;;;;23.50;23.50;;;;;;;;5063610;28;45491;-71
2022/03/26 11:37:57;;;;;;;;;24.75;22.50;;;;;;;;5078743;28;46913;-72
2022/03/26 11:40:43;;;;;;;;;20.75;20.00;;;;;;;;5078350;27;45566;-71
2022/03/26 11:43:16;;;;;;;;;24.25;22.50;;;;;;;;5057742;28;45479;-71
2022/03/26 11:51:21;;;;;;;;;29.25;27.50;;;;;;;;5068619;27;45365;-71
2022/03/26 11:53:48;;;;;;;;;26.50;26.25;;;;;;;;5072736;28;45556;-71
2022/03/26 11:56:27;;;;;;;;;28.25;26.75;;;;;;;;5060485;28;45528;-71
2022/03/26 11:59:10;;;;;;;;;26.25;25.50;;;;;;;;5058638;28;46267;-71
2022/03/26 12:01:40;;;;;;;;;23.75;22.75;;;;;;;;5071319;28;45551;-72
2022/03/26 12:04:12;;;;;;;;;29.75;29.75;;;;;;;;5076240;28;45535;-72
2022/03/26 12:07:01;;;;;;;;;32.00;27.75;;;;;;;;5079400;28;45334;-71
2022/03/26 12:09:33;;;;;;;;;24.75;24.25;;;;;;;;5073437;28;45555;-71
2022/03/26 12:12:10;;;;;;;;;17.75;14.50;;;;;;;;5065661;27;45462;-71
2022/03/26 12:14:55;;;;;;;;;27.00;27.00;;;;;;;;5073366;28;45598;-71
2022/03/26 12:17:39;;;;;;;;;27.25;24.75;;;;;;;;5056813;28;45468;-71
2022/03/26 12:20:23;;;;;;;;;29.50;26.50;;;;;;;;5072512;28;45614;-72
2022/03/26 12:23:00;;;;;;;;;26.25;25.25;;;;;;;;5074161;28;45273;-71
2022/03/26 12:25:50;;;;;;;;;24.50;20.75;;;;;;;;5057088;28;45568;-71
2022/03/26 12:28:20;;;;;;;;;28.25;28.25;;;;;;;;5057868;28;45399;-72
2022/03/26 12:30:46;;;;;;;;;29.50;27.50;;;;;;;;5057160;28;46110;-72
2022/03/26 12:33:13;;;;;;;;;30.00;28.00;;;;;;;;5067876;28;45359;-71
2022/03/26 12:35:38;;;;;;;;;30.75;27.25;;;;;;;;5063145;28;45469;-71
2022/03/26 12:38:04;;;;;;;;;30.75;28.75;;;;;;;;5059891;28;45205;-71
2022/03/26 12:40:31;;;;;;;;;26.50;25.00;;;;;;;;5077378;28;46502;-72
2022/03/26 12:42:56;;;;;;;;;23.75;22.25;;;;;;;;5076218;28;45381;-71
2022/03/26 12:45:22;;;;;;;;;22.00;20.00;;;;;;;;5063301;27;45369;-71
2022/03/26 12:47:48;;;;;;;;;21.50;19.25;;;;;;;;5059373;28;45639;-71
2022/03/26 12:50:16;;;;;;;;;24.25;21.25;;;;;;;;5076274;28;45444;-72
2022/03/26 12:52:42;;;;;;;;;25.00;23.00;;;;;;;;5065648;28;45421;-71
2022/03/26 12:55:07;;;;;;;;;24.50;23.50;;;;;;;;5072018;28;45339;-71
2022/03/26 13:00:21;;;;;;;;;20.75;17.50;;;;;;;;5057342;28;45956;-71
2022/03/26 13:02:47;;;;;;;;;21.25;20.50;;;;;;;;5057396;28;45499;-72
2022/03/26 13:05:12;;;;;;;;;23.00;22.25;;;;;;;;5057144;28;45599;-72
2022/03/26 13:07:37;;;;;;;;;27.00;24.75;;;;;;;;5058216;28;45416;-72
2022/03/26 13:10:03;;;;;;;;;29.00;27.25;;;;;;;;5057170;28;45477;-72
2022/03/26 13:12:29;;;;;;;;;24.75;21.00;;;;;;;;5057244;28;45463;-71
2022/03/26 13:14:55;;;;;;;;;27.25;24.75;;;;;;;;5072561;28;45439;-71
2022/03/26 13:17:21;;;;;;;;;24.00;22.00;;;;;;;;5057754;28;45737;-72
2022/03/26 13:19:47;;;;;;;;;22.75;21.75;;;;;;;;5062007;28;45541;-71
2022/03/26 13:22:16;;;;;;;;;22.25;21.50;;;;;;;;5066155;28;45444;-72
2022/03/26 13:25:04;;;;;;;;;23.00;21.00;;;;;;;;5072558;27;45384;-71
2022/03/26 13:27:29;;;;;;;;;22.00;20.50;;;;;;;;5070934;28;45424;-72
2022/03/26 13:30:07;;;;;;;;;26.75;24.50;;;;;;;;5056754;28;45501;-71
2022/03/26 13:32:32;;;;;;;;;24.25;23.00;;;;;;;;5072728;27;45283;-71
2022/03/26 13:34:58;;;;;;;;;24.75;20.75;;;;;;;;5060361;28;45593;-71
2022/03/26 13:37:23;;;;;;;;;22.75;20.00;;;;;;;;5072560;28;45484;-72
2022/03/26 13:39:52;;;;;;;;;24.75;22.00;;;;;;;;5056932;28;46482;-72
2022/03/26 13:42:20;;;;;;;;;22.75;21.50;;;;;;;;5056584;28;45336;-72
2022/03/26 13:44:50;;;;;;;;;20.50;19.75;;;;;;;;5057072;28;45338;-73
2022/03/26 13:47:16;;;;;;;;;22.75;22.00;;;;;;;;5055988;28;45497;-73
2022/03/26 13:49:42;;;;;;;;;22.50;20.00;;;;;;;;5056862;28;45448;-72
2022/03/26 13:52:27;;;;;;;;;24.25;22.50;;;;;;;;5056774;28;45492;-71
2022/03/26 13:54:52;;;;;;;;;28.25;23.50;;;;;;;;5075940;28;45302;-71
2022/03/26 13:57:27;;;;;;;;;24.00;23.50;;;;;;;;5071536;28;45564;-72
2022/03/26 13:59:53;;;;;;;;;31.50;29.25;;;;;;;;5070248;27;46907;-72
2022/03/26 14:02:23;;;;;;;;;25.75;24.50;;;;;;;;5056502;28;45587;-70
2022/03/26 14:04:48;;;;;;;;;48.75;38.75;;;;;;;;5054716;28;45436;-72
2022/03/26 14:07:14;;;;;;;;;19.50;19.50;;;;;;;;5056987;28;45606;-72
2022/03/26 14:09:40;;;;;;;;;33.00;31.25;;;;;;;;5066324;27;46665;-72
2022/03/26 14:12:05;;;;;;;;;42.00;35.75;;;;;;;;5076420;28;45270;-72
2022/03/26 14:14:31;;;;;;;;;77.75;67.75;;;;;;;;5066758;28;45401;-72
2022/03/26 14:16:56;;;;;;;;;29.75;27.75;;;;;;;;5056351;28;45213;-72
2022/03/26 14:19:21;;;;;;;;;34.25;31.75;;;;;;;;5063168;28;46422;-72
2022/03/26 14:21:46;;;;;;;;;25.75;23.75;;;;;;;;5071541;28;45480;-72
2022/03/26 14:24:12;;;;;;;;;36.50;33.25;;;;;;;;5070685;28;45468;-72